Time;durP1;ratioP1;P1;durP2;ratioP2;P2;SDS_P1;SDS_P2;PMS_P1;PMS_P2;Temp;Humidity;BMP_temperature;BMP_pressure;BME280_temperature;BME280_humidity;BME280_pressure;Samples;Min_cycle;Max_cycle;Signal;HPM_P1;HPM_P2
2021/09/22 00:00:09;;;;;;;16.37;5.17;;;13.00;98.30;;;;;;5099074;23;20423;-80
2021/09/22 00:02:12;;;;;;;19.50;5.70;;;13.00;98.30;;;;;;5091179;23;20518;-80
2021/09/22 00:04:15;;;;;;;18.87;6.83;;;13.00;98.30;;;;;;5099185;23;20446;-80
2021/09/22 00:06:19;;;;;;;11.40;4.57;;;13.00;98.30;;;;;;5099833;23;20423;-80
2021/09/22 00:08:22;;;;;;;21.20;5.63;;;13.10;98.30;;;;;;5099845;23;20502;-80
2021/09/22 00:10:25;;;;;;;19.00;5.27;;;13.10;98.30;;;;;;5091742;23;20434;-80
2021/09/22 00:12:29;;;;;;;15.03;5.73;;;13.10;98.30;;;;;;5091469;23;20439;-80
2021/09/22 00:14:32;;;;;;;15.10;6.00;;;13.10;98.30;;;;;;5099261;23;20478;-81
2021/09/22 00:16:35;;;;;;;15.13;4.70;;;13.10;98.30;;;;;;5091697;23;20462;-80
2021/09/22 00:18:38;;;;;;;15.97;5.57;;;13.10;98.30;;;;;;5099716;23;20426;-81
2021/09/22 00:20:41;;;;;;;16.63;4.93;;;13.10;98.30;;;;;;5099890;23;20916;-80
2021/09/22 00:22:44;;;;;;;17.33;4.97;;;13.10;98.30;;;;;;5099620;23;20424;-80
2021/09/22 00:24:47;;;;;;;14.00;5.13;;;13.10;98.30;;;;;;5091476;23;20558;-80
2021/09/22 00:26:50;;;;;;;12.67;5.00;;;13.00;98.30;;;;;;5074814;23;20921;-80
2021/09/22 00:28:55;;;;;;;18.87;5.00;;;12.90;98.30;;;;;;5066418;23;20454;-80
2021/09/22 00:30:58;;;;;;;14.23;5.87;;;12.80;98.30;;;;;;5075785;23;20451;-80
2021/09/22 00:33:01;;;;;;;17.57;6.80;;;12.80;98.30;;;;;;5075236;23;20511;-81
2021/09/22 00:35:05;;;;;;;26.87;6.93;;;12.80;98.30;;;;;;5067302;23;20452;-80
2021/09/22 00:37:08;;;;;;;15.93;5.53;;;12.80;98.30;;;;;;5069090;23;21202;-80
2021/09/22 00:39:11;;;;;;;20.20;5.33;;;12.80;98.30;;;;;;5069062;23;20428;-80
2021/09/22 00:41:20;;;;;;;15.10;4.93;;;12.80;98.30;;;;;;5069081;23;20922;-80
2021/09/22 00:43:23;;;;;;;21.37;5.30;;;12.80;98.30;;;;;;5069415;23;20435;-80
2021/09/22 00:45:29;;;;;;;10.30;4.77;;;12.80;98.30;;;;;;5069161;23;20448;-80
2021/09/22 00:47:32;;;;;;;18.10;5.10;;;12.80;98.30;;;;;;5068824;23;20976;-81
2021/09/22 00:49:35;;;;;;;24.50;5.87;;;12.80;98.30;;;;;;5076917;23;20526;-80
2021/09/22 00:51:39;;;;;;;19.07;5.97;;;12.90;98.30;;;;;;5069351;23;20444;-80
2021/09/22 00:53:43;;;;;;;17.60;4.63;;;12.90;98.30;;;;;;5068776;23;20436;-80
2021/09/22 00:55:46;;;;;;;18.27;5.20;;;12.90;98.30;;;;;;5070227;23;20831;-79
2021/09/22 00:57:59;;;;;;;13.53;4.97;;;12.80;98.30;;;;;;5070617;23;20412;-79
2021/09/22 01:00:04;;;;;;;17.93;5.57;;;12.70;98.30;;;;;;5071063;23;20515;-79
2021/09/22 01:02:09;;;;;;;15.30;5.80;;;12.70;98.30;;;;;;5078597;23;20424;-79
2021/09/22 01:04:12;;;;;;;16.10;4.90;;;12.70;98.30;;;;;;5071411;23;20462;-80
2021/09/22 01:06:16;;;;;;;13.40;4.50;;;12.70;98.30;;;;;;5073333;23;20432;-79
2021/09/22 01:08:20;;;;;;;20.47;5.90;;;12.80;98.30;;;;;;5080685;23;20440;-79
2021/09/22 01:10:23;;;;;;;13.23;5.20;;;12.80;98.30;;;;;;5077760;23;21084;-80
2021/09/22 01:12:26;;;;;;;13.97;5.50;;;12.80;98.30;;;;;;5069392;23;20506;-80
2021/09/22 01:14:29;;;;;;;14.17;4.97;;;12.80;98.30;;;;;;5069321;23;20976;-80
2021/09/22 01:16:32;;;;;;;16.77;4.93;;;12.80;98.30;;;;;;5077422;23;20526;-80
2021/09/22 01:18:37;;;;;;;13.70;5.30;;;12.80;98.30;;;;;;5068944;23;20442;-80
2021/09/22 01:20:41;;;;;;;12.10;4.50;;;12.90;98.30;;;;;;5068828;23;21161;-80
2021/09/22 01:22:45;;;;;;;14.90;5.53;;;12.80;98.30;;;;;;5076429;23;20516;-80
2021/09/22 01:24:48;;;;;;;10.00;4.60;;;12.80;98.30;;;;;;5068996;23;20455;-80
2021/09/22 01:26:52;;;;;;;22.40;6.90;;;12.80;98.30;;;;;;5069545;23;20798;-80
2021/09/22 01:28:55;;;;;;;23.90;12.87;;;12.90;98.30;;;;;;5069422;23;20790;-80
2021/09/22 01:31:00;;;;;;;25.70;9.63;;;13.00;98.30;;;;;;5069339;23;20451;-80
2021/09/22 01:33:07;;;;;;;20.00;9.97;;;13.10;98.30;;;;;;5069017;23;20442;-80
2021/09/22 01:35:10;;;;;;;28.13;10.60;;;13.00;98.30;;;;;;5068906;23;20451;-80
2021/09/22 01:37:13;;;;;;;34.67;14.40;;;12.90;98.30;;;;;;5076765;23;20437;-80
2021/09/22 01:39:17;;;;;;;18.43;8.80;;;12.90;98.30;;;;;;5068614;23;20514;-80
2021/09/22 01:41:20;;;;;;;20.83;7.10;;;12.90;98.30;;;;;;5076523;23;20931;-80
2021/09/22 01:43:24;;;;;;;28.10;12.40;;;12.80;98.30;;;;;;5076554;23;20427;-81
2021/09/22 01:45:27;;;;;;;14.90;6.10;;;12.70;98.30;;;;;;5068416;23;20503;-80
2021/09/22 01:47:30;;;;;;;24.07;8.37;;;12.70;98.30;;;;;;5068328;23;20432;-80
2021/09/22 01:49:33;;;;;;;20.03;7.13;;;12.60;98.30;;;;;;5068330;23;20495;-80
2021/09/22 01:51:36;;;;;;;25.07;9.47;;;12.60;98.30;;;;;;5076761;23;20420;-80
2021/09/22 01:53:40;;;;;;;19.90;6.80;;;12.70;98.30;;;;;;5076306;23;20420;-80
2021/09/22 01:55:44;;;;;;;17.17;7.10;;;12.60;98.30;;;;;;5076272;23;20439;-80
2021/09/22 01:57:47;;;;;;;21.37;6.57;;;12.60;98.30;;;;;;5068398;23;20909;-80
2021/09/22 01:59:50;;;;;;;17.07;6.03;;;12.60;98.30;;;;;;5067943;23;20424;-80
2021/09/22 02:01:53;;;;;;;22.60;6.37;;;12.60;98.30;;;;;;5068528;23;20484;-80
2021/09/22 02:03:57;;;;;;;15.77;6.23;;;12.50;98.30;;;;;;5068054;23;20439;-80
2021/09/22 02:06:00;;;;;;;19.60;7.90;;;12.50;98.30;;;;;;5076019;23;20427;-80
2021/09/22 02:08:03;;;;;;;22.13;6.87;;;12.50;98.30;;;;;;5067915;23;20491;-80
2021/09/22 02:10:08;;;;;;;17.77;6.73;;;12.50;98.30;;;;;;5068213;23;20448;-80
2021/09/22 02:12:12;;;;;;;14.83;5.97;;;12.50;98.30;;;;;;5076331;23;20427;-80
2021/09/22 02:14:15;;;;;;;16.37;6.50;;;12.50;98.30;;;;;;5067090;23;20483;-79
2021/09/22 02:16:18;;;;;;;17.27;7.17;;;12.50;98.30;;;;;;5075122;23;20906;-79
2021/09/22 02:18:21;;;;;;;21.77;6.57;;;12.60;98.30;;;;;;5066976;23;21201;-79
2021/09/22 02:20:24;;;;;;;17.77;5.90;;;12.60;98.30;;;;;;5067347;23;20519;-80
2021/09/22 02:22:27;;;;;;;24.50;6.50;;;12.60;98.30;;;;;;5067025;23;20436;-79
2021/09/22 02:24:30;;;;;;;12.07;5.47;;;12.60;98.30;;;;;;5066974;23;20519;-79
2021/09/22 02:26:33;;;;;;;18.87;6.17;;;12.60;98.30;;;;;;5088481;23;20762;-80
2021/09/22 02:28:38;;;;;;;14.17;5.80;;;12.70;98.30;;;;;;5091910;23;20431;-80
2021/09/22 02:30:40;;;;;;;17.00;5.50;;;12.70;98.30;;;;;;5100998;23;20501;-80
2021/09/22 02:32:44;;;;;;;19.87;6.77;;;12.70;98.30;;;;;;5092671;23;20497;-80
2021/09/22 02:34:47;;;;;;;16.23;5.57;;;12.70;98.30;;;;;;5099982;23;20793;-79
2021/09/22 02:36:50;;;;;;;13.60;5.60;;;12.60;98.30;;;;;;5091120;23;20433;-79
2021/09/22 02:38:54;;;;;;;18.47;6.00;;;12.60;98.30;;;;;;5091180;23;20431;-79
2021/09/22 02:40:57;;;;;;;16.20;6.27;;;12.60;98.30;;;;;;5091488;23;20796;-79
2021/09/22 02:42:59;;;;;;;13.47;5.90;;;12.60;98.30;;;;;;5091727;23;20486;-80
2021/09/22 02:45:05;;;;;;;17.07;5.53;;;12.60;98.30;;;;;;5091815;23;20458;-80
2021/09/22 02:47:08;;;;;;;17.37;6.67;;;12.60;98.30;;;;;;5091950;23;20514;-79
2021/09/22 02:49:11;;;;;;;23.47;6.53;;;12.70;98.30;;;;;;5091676;23;20482;-80
2021/09/22 02:51:14;;;;;;;17.53;5.87;;;12.60;98.30;;;;;;5091566;23;20749;-80
2021/09/22 02:53:17;;;;;;;17.83;6.50;;;12.50;98.30;;;;;;5099433;23;20423;-80
2021/09/22 02:55:20;;;;;;;17.87;6.00;;;12.30;98.30;;;;;;5100013;23;20443;-80
2021/09/22 02:57:23;;;;;;;14.23;6.00;;;12.30;98.30;;;;;;5099685;23;20419;-80
2021/09/22 02:59:26;;;;;;;20.00;6.00;;;12.20;98.30;;;;;;5091028;23;20442;-80
2021/09/22 03:01:32;;;;;;;18.40;6.77;;;12.20;98.30;;;;;;5091885;23;20426;-80
2021/09/22 03:03:35;;;;;;;24.07;7.67;;;12.20;98.30;;;;;;5091465;23;20522;-79
2021/09/22 03:05:39;;;;;;;21.43;6.67;;;12.10;98.30;;;;;;5099220;23;20446;-80
2021/09/22 03:07:42;;;;;;;18.80;6.90;;;12.10;98.30;;;;;;5091603;23;20441;-80
2021/09/22 03:09:45;;;;;;;18.00;8.00;;;12.10;98.30;;;;;;5091476;23;20521;-80
2021/09/22 03:11:48;;;;;;;17.47;7.33;;;12.10;98.30;;;;;;5091639;23;20469;-80
2021/09/22 03:13:51;;;;;;;21.83;7.23;;;12.10;98.30;;;;;;5091953;23;20437;-80
2021/09/22 03:15:54;;;;;;;23.17;7.57;;;12.20;98.30;;;;;;5091406;23;20441;-80
2021/09/22 03:17:58;;;;;;;21.57;6.93;;;12.20;98.30;;;;;;5091546;23;20729;-79
2021/09/22 03:20:01;;;;;;;15.40;6.57;;;12.20;98.30;;;;;;5092042;23;20431;-80
2021/09/22 03:22:04;;;;;;;14.90;5.90;;;12.20;98.30;;;;;;5099794;23;20449;-80
2021/09/22 03:24:07;;;;;;;19.53;7.13;;;12.20;98.30;;;;;;5099858;23;20471;-80
2021/09/22 03:26:11;;;;;;;19.17;5.80;;;12.20;98.30;;;;;;5099550;23;20458;-80
2021/09/22 03:28:14;;;;;;;19.77;7.40;;;12.20;98.30;;;;;;5091158;23;20430;-79
2021/09/22 03:30:17;;;;;;;17.67;6.47;;;12.20;98.30;;;;;;5099252;23;20457;-80
2021/09/22 03:32:20;;;;;;;16.27;6.57;;;12.10;98.30;;;;;;5099194;23;20453;-79
2021/09/22 03:34:24;;;;;;;22.47;6.80;;;12.10;98.30;;;;;;5091219;23;20944;-79
2021/09/22 03:36:27;;;;;;;13.87;5.70;;;12.10;98.30;;;;;;5089882;23;20431;-80
2021/09/22 03:38:30;;;;;;;19.93;6.60;;;12.10;98.30;;;;;;5098955;23;20437;-80
2021/09/22 03:40:33;;;;;;;17.10;5.90;;;12.10;98.30;;;;;;5091874;23;20431;-79
2021/09/22 03:42:36;;;;;;;18.00;6.00;;;12.10;98.30;;;;;;5091379;23;20431;-80
2021/09/22 03:44:39;;;;;;;22.17;6.93;;;12.00;98.30;;;;;;5091237;23;20451;-80
2021/09/22 03:46:42;;;;;;;16.53;6.00;;;12.00;98.30;;;;;;5091584;23;20434;-79
2021/09/22 03:48:45;;;;;;;15.90;6.30;;;12.00;98.30;;;;;;5091186;23;20431;-80
2021/09/22 03:50:50;;;;;;;17.27;6.90;;;11.90;98.30;;;;;;5091694;23;20427;-80
2021/09/22 03:52:53;;;;;;;16.60;6.80;;;12.00;98.30;;;;;;5091375;23;20437;-80
2021/09/22 03:54:56;;;;;;;13.37;6.07;;;11.90;98.30;;;;;;5099265;23;20473;-80
2021/09/22 03:56:59;;;;;;;17.17;7.03;;;11.90;98.30;;;;;;5099218;23;20431;-80
2021/09/22 03:59:02;;;;;;;20.73;5.97;;;11.90;98.30;;;;;;5091169;23;20438;-80
2021/09/22 04:01:05;;;;;;;18.57;7.23;;;12.00;98.30;;;;;;5099162;23;20932;-80
2021/09/22 04:03:09;;;;;;;22.00;6.37;;;12.00;98.30;;;;;;5099311;23;20426;-79
2021/09/22 04:05:12;;;;;;;16.20;7.60;;;12.00;98.30;;;;;;5091070;23;20482;-80
2021/09/22 04:07:17;;;;;;;16.67;5.60;;;12.00;98.30;;;;;;5091236;23;20434;-81
2021/09/22 04:09:20;;;;;;;20.90;6.57;;;12.00;98.30;;;;;;5090784;23;20514;-80
2021/09/22 04:11:23;;;;;;;22.73;6.97;;;12.00;98.30;;;;;;5091083;23;20526;-79
2021/09/22 04:13:26;;;;;;;15.03;6.20;;;11.90;98.30;;;;;;5090997;23;20473;-80
2021/09/22 04:15:29;;;;;;;15.30;6.20;;;11.90;98.30;;;;;;5090707;23;20459;-79
2021/09/22 04:17:32;;;;;;;20.60;7.03;;;11.80;98.30;;;;;;5098745;23;20429;-81
2021/09/22 04:19:35;;;;;;;17.10;7.43;;;11.80;98.30;;;;;;5090786;23;20756;-79
2021/09/22 04:21:39;;;;;;;24.30;7.07;;;11.80;98.30;;;;;;5092366;23;20427;-82
2021/09/22 04:23:43;;;;;;;16.93;6.50;;;11.80;98.30;;;;;;5101448;23;20447;-82
2021/09/22 04:25:46;;;;;;;19.00;7.50;;;11.80;98.30;;;;;;5100432;23;20517;-82
2021/09/22 04:27:49;;;;;;;14.00;5.80;;;11.80;98.30;;;;;;5093048;23;20472;-82
2021/09/22 04:29:52;;;;;;;19.77;7.00;;;11.80;98.30;;;;;;5101238;23;20427;-82
2021/09/22 04:31:55;;;;;;;21.00;6.23;;;11.80;98.30;;;;;;5101390;23;20457;-81
2021/09/22 04:33:59;;;;;;;19.47;6.53;;;11.80;98.30;;;;;;5102181;23;20415;-81
2021/09/22 04:36:02;;;;;;;18.73;7.03;;;11.80;98.30;;;;;;5100439;23;20833;-82
2021/09/22 04:38:07;;;;;;;24.70;6.83;;;11.80;98.30;;;;;;5092931;23;20465;-81
2021/09/22 04:40:12;;;;;;;21.73;7.00;;;11.80;98.30;;;;;;5101261;23;21304;-83
2021/09/22 04:42:15;;;;;;;16.90;6.43;;;11.80;98.30;;;;;;5093335;23;20426;-82
2021/09/22 04:44:19;;;;;;;22.23;9.23;;;11.80;98.30;;;;;;5101062;23;20506;-82
2021/09/22 04:46:23;;;;;;;17.93;6.50;;;11.80;98.30;;;;;;5101020;23;20971;-82
2021/09/22 04:48:26;;;;;;;21.87;7.03;;;11.70;98.30;;;;;;5093139;23;20431;-82
2021/09/22 04:50:29;;;;;;;14.60;5.83;;;11.70;98.30;;;;;;5101834;23;20457;-82
2021/09/22 04:52:32;;;;;;;21.50;6.57;;;11.70;98.30;;;;;;5101473;23;21010;-82
2021/09/22 04:54:35;;;;;;;19.73;7.10;;;11.70;98.30;;;;;;5101313;23;20474;-82
2021/09/22 04:56:40;;;;;;;18.13;6.10;;;11.70;98.30;;;;;;5102368;23;20426;-82
2021/09/22 04:58:44;;;;;;;20.97;7.80;;;11.70;98.30;;;;;;5100541;23;20434;-82
2021/09/22 05:00:47;;;;;;;25.30;6.77;;;11.70;98.30;;;;;;5100894;23;20426;-82
2021/09/22 05:02:50;;;;;;;24.23;7.40;;;11.70;98.30;;;;;;5092665;23;20431;-82
2021/09/22 05:04:54;;;;;;;17.30;5.73;;;11.70;98.30;;;;;;5100154;23;20551;-82
2021/09/22 05:06:57;;;;;;;13.67;6.00;;;11.70;98.30;;;;;;5101031;23;20426;-82
2021/09/22 05:09:00;;;;;;;16.83;6.23;;;11.60;98.30;;;;;;5100628;23;20445;-82
2021/09/22 05:11:04;;;;;;;21.53;8.27;;;11.60;98.30;;;;;;5101096;23;20415;-82
2021/09/22 05:13:08;;;;;;;21.93;5.93;;;11.60;98.30;;;;;;5100497;23;20501;-82
2021/09/22 05:15:12;;;;;;;24.10;6.87;;;11.70;98.30;;;;;;5101656;23;20450;-83
2021/09/22 05:17:15;;;;;;;16.67;5.30;;;11.80;98.30;;;;;;5100795;23;20430;-82
2021/09/22 05:19:19;;;;;;;14.77;5.50;;;11.80;98.30;;;;;;5101232;23;20418;-82
2021/09/22 05:21:22;;;;;;;14.73;6.10;;;11.80;98.30;;;;;;5100305;23;20430;-83
2021/09/22 05:23:25;;;;;;;13.23;5.77;;;11.90;98.30;;;;;;5102656;23;20454;-83
2021/09/22 05:25:29;;;;;;;14.83;5.90;;;11.90;98.30;;;;;;5093846;23;20490;-83
2021/09/22 05:27:32;;;;;;;22.90;6.13;;;11.90;98.30;;;;;;5103163;23;20430;-83
2021/09/22 05:29:37;;;;;;;19.83;5.50;;;11.90;98.30;;;;;;5102842;23;20423;-82
2021/09/22 05:31:43;;;;;;;18.27;7.10;;;11.80;98.30;;;;;;5102744;23;20447;-84
2021/09/22 05:33:47;;;;;;;17.43;6.03;;;11.90;98.30;;;;;;5102124;23;20482;-83
2021/09/22 05:35:50;;;;;;;13.93;6.10;;;11.80;98.30;;;;;;5098402;23;20465;-84
2021/09/22 05:37:53;;;;;;;15.90;5.50;;;11.90;98.30;;;;;;5100242;23;20449;-84
2021/09/22 05:39:59;;;;;;;14.50;5.97;;;11.80;98.30;;;;;;5100925;23;20458;-84
2021/09/22 05:42:02;;;;;;;11.80;5.17;;;11.80;98.30;;;;;;5108137;23;20419;-85
2021/09/22 05:44:06;;;;;;;17.37;6.07;;;11.80;98.30;;;;;;5107247;23;20529;-84
2021/09/22 05:46:11;;;;;;;13.00;5.53;;;11.90;98.30;;;;;;5108476;23;20419;-83
2021/09/22 05:48:14;;;;;;;18.20;5.87;;;11.90;98.30;;;;;;5107016;23;20493;-84
2021/09/22 05:50:21;;;;;;;26.40;6.83;;;12.10;98.30;;;;;;5098756;23;20455;-84
2021/09/22 05:52:27;;;;;;;20.17;6.80;;;12.00;98.30;;;;;;5107794;23;21177;-84
2021/09/22 05:54:30;;;;;;;22.67;5.97;;;12.00;98.30;;;;;;5107471;23;20443;-84
2021/09/22 05:56:33;;;;;;;19.70;6.93;;;12.10;98.30;;;;;;5107252;23;20431;-84
2021/09/22 05:58:36;;;;;;;16.77;6.27;;;12.10;98.30;;;;;;5107544;23;20510;-83
2021/09/22 06:00:46;;;;;;;16.00;6.60;;;12.10;98.30;;;;;;5106462;23;20426;-85
2021/09/22 06:02:55;;;;;;;14.07;6.60;;;12.20;98.30;;;;;;5120547;23;20419;-83
2021/09/22 06:04:58;;;;;;;13.90;6.47;;;12.20;98.30;;;;;;5118299;23;20446;-82
2021/09/22 06:07:02;;;;;;;16.53;6.20;;;12.30;98.30;;;;;;5108409;23;20937;-81
2021/09/22 06:09:05;;;;;;;17.17;5.93;;;12.40;98.30;;;;;;5112469;23;20454;-82
2021/09/22 06:11:08;;;;;;;15.80;6.67;;;12.40;98.30;;;;;;5111901;23;20484;-80
2021/09/22 06:57:21;;;;;;;17.20;7.40;;;12.90;98.30;;;;;;5071858;23;20435;-84
2021/09/22 06:59:37;;;;;;;26.47;8.90;;;12.90;98.30;;;;;;5067760;23;20516;-84
2021/09/22 10:00:11;;;;;;;14.13;6.57;;;18.60;98.30;;;;;;5025583;23;20440;-86
2021/09/22 10:02:54;;;;;;;13.63;6.57;;;18.60;98.30;;;;;;5038594;23;20417;-87
2021/09/22 10:05:12;;;;;;;9.33;6.20;;;19.00;98.30;;;;;;5040899;23;20460;-84
2021/09/22 10:07:20;;;;;;;10.60;6.20;;;18.90;98.30;;;;;;5048469;23;20456;-84
2021/09/22 14:37:53;;;;;;;6.40;4.23;;;25.60;82.50;;;;;;5125171;23;20494;-85
2021/09/22 14:57:12;;;;;;;4.37;3.77;;;28.80;77.30;;;;;;5179820;22;20461;-81
2021/09/22 14:59:15;;;;;;;6.87;4.20;;;28.40;77.30;;;;;;5202602;22;20452;-81
2021/09/22 15:01:19;;;;;;;11.93;7.83;;;27.80;78.00;;;;;;5202051;22;20422;-81
2021/09/22 15:03:22;;;;;;;15.93;13.37;;;26.80;80.10;;;;;;5200826;22;20528;-82
2021/09/22 15:05:37;;;;;;;5.53;3.77;;;26.80;80.80;;;;;;5201969;22;20425;-82
2021/09/22 15:07:50;;;;;;;8.90;4.17;;;27.10;79.80;;;;;;5201593;22;21193;-82
2021/09/22 15:09:55;;;;;;;5.10;4.43;;;26.70;80.40;;;;;;5201391;22;20422;-82
2021/09/22 15:11:59;;;;;;;6.40;4.00;;;26.30;81.20;;;;;;5201524;22;20422;-82
2021/09/22 16:11:39;;;;;;;11.50;5.53;;;20.20;98.30;;;;;;5045594;23;20444;-82
2021/09/22 17:15:45;;;;;;;17.57;6.80;;;18.20;98.30;;;;;;5000719;23;20472;-82
2021/09/22 17:18:41;;;;;;;9.27;6.10;;;18.20;98.30;;;;;;5031218;22;20426;-83
2021/09/22 18:36:52;;;;;;;13.57;10.00;;;16.70;98.30;;;;;;5016627;23;21046;-83
2021/09/22 18:38:56;;;;;;;11.67;9.40;;;16.70;98.30;;;;;;5025440;23;20744;-84
2021/09/22 18:41:03;;;;;;;12.67;10.07;;;16.60;98.30;;;;;;5017479;23;20430;-83
2021/09/22 18:43:11;;;;;;;12.17;9.80;;;16.70;98.30;;;;;;5024245;23;20509;-83
2021/09/22 18:45:18;;;;;;;15.30;11.60;;;16.60;98.30;;;;;;5024171;23;20430;-83
2021/09/22 18:47:32;;;;;;;11.87;10.37;;;16.60;98.30;;;;;;5016354;23;20454;-83
2021/09/22 18:49:41;;;;;;;15.53;11.17;;;16.50;98.30;;;;;;5017049;23;20883;-84
2021/09/22 18:51:45;;;;;;;12.30;9.90;;;16.50;98.30;;;;;;5023767;23;20434;-82
2021/09/22 18:53:49;;;;;;;13.83;10.63;;;16.50;98.30;;;;;;5024944;23;20441;-85
2021/09/22 18:55:53;;;;;;;15.07;10.43;;;16.50;98.30;;;;;;5024910;23;20849;-83
2021/09/22 18:57:56;;;;;;;12.17;10.90;;;16.40;98.30;;;;;;5017273;23;20486;-83
2021/09/22 18:59:59;;;;;;;15.93;10.77;;;16.40;98.30;;;;;;5025066;23;20441;-82
2021/09/22 19:02:03;;;;;;;15.70;11.00;;;16.40;98.30;;;;;;5023768;23;20426;-84
2021/09/22 19:04:07;;;;;;;14.30;10.77;;;16.40;98.30;;;;;;5024305;23;20450;-83
2021/09/22 19:06:12;;;;;;;13.37;10.43;;;16.40;98.30;;;;;;5024916;23;20450;-84
2021/09/22 19:08:16;;;;;;;15.47;11.17;;;16.40;98.30;;;;;;5024640;23;20907;-82
2021/09/22 19:10:20;;;;;;;13.60;11.40;;;16.40;98.30;;;;;;5024994;23;20465;-83
2021/09/22 19:12:24;;;;;;;16.60;12.00;;;16.30;98.30;;;;;;5024386;23;20422;-83
2021/09/22 19:14:28;;;;;;;17.80;11.60;;;16.30;98.30;;;;;;5017276;23;20426;-83
2021/09/22 19:16:31;;;;;;;17.47;11.73;;;16.30;98.30;;;;;;5024726;23;20449;-82
2021/09/22 19:18:35;;;;;;;14.80;11.50;;;16.30;98.30;;;;;;5024277;23;20426;-83
2021/09/22 19:20:41;;;;;;;15.33;11.03;;;16.20;98.30;;;;;;5017000;23;20422;-84
2021/09/22 19:22:45;;;;;;;17.77;13.00;;;16.20;98.30;;;;;;5025759;23;20438;-84
2021/09/22 19:24:48;;;;;;;15.90;11.53;;;16.20;98.30;;;;;;5025443;23;20544;-83
2021/09/22 19:26:56;;;;;;;14.30;11.47;;;16.20;98.30;;;;;;5026009;23;20496;-83
2021/09/22 19:28:59;;;;;;;24.17;11.80;;;16.20;98.30;;;;;;5026170;23;20412;-83
2021/09/22 19:31:03;;;;;;;14.60;10.70;;;16.20;98.30;;;;;;5027186;23;20418;-82
2021/09/22 19:33:06;;;;;;;14.20;11.27;;;16.20;98.30;;;;;;5027298;23;20480;-82
2021/09/22 19:35:10;;;;;;;12.40;11.13;;;16.10;98.30;;;;;;5026836;23;20445;-82
2021/09/22 19:37:13;;;;;;;16.07;12.80;;;16.10;98.30;;;;;;5050270;23;20441;-82
2021/09/22 19:39:22;;;;;;;13.93;11.20;;;16.10;98.30;;;;;;5050087;23;20428;-83
2021/09/22 19:41:25;;;;;;;12.77;11.17;;;16.10;98.30;;;;;;5049280;23;20439;-82
2021/09/22 19:43:30;;;;;;;15.87;10.87;;;16.00;98.30;;;;;;5041968;23;20429;-82
2021/09/22 19:45:37;;;;;;;14.23;10.87;;;16.00;98.30;;;;;;5049285;23;20451;-82
2021/09/22 19:47:40;;;;;;;16.30;11.60;;;16.00;98.30;;;;;;5049276;23;20431;-82
2021/09/22 19:49:44;;;;;;;14.70;11.07;;;16.00;98.30;;;;;;5050316;23;20427;-82
2021/09/22 19:51:47;;;;;;;17.30;11.83;;;15.90;98.30;;;;;;5042345;23;20910;-82
2021/09/22 19:53:50;;;;;;;13.73;10.90;;;15.90;98.30;;;;;;5049514;23;20509;-82
2021/09/22 19:55:53;;;;;;;13.57;11.10;;;15.90;98.30;;;;;;5048936;23;20441;-82
2021/09/22 19:57:57;;;;;;;13.97;11.67;;;15.90;98.30;;;;;;5042114;23;20439;-82
2021/09/22 20:00:01;;;;;;;15.07;10.83;;;15.90;98.30;;;;;;5042613;23;20434;-82
2021/09/22 20:02:04;;;;;;;16.90;12.00;;;15.90;98.30;;;;;;5042350;23;20429;-82
2021/09/22 20:04:08;;;;;;;15.23;11.77;;;15.80;98.30;;;;;;5041876;23;20457;-82
2021/09/22 20:06:12;;;;;;;15.30;11.07;;;15.80;98.30;;;;;;5049848;23;20819;-82
2021/09/22 20:08:15;;;;;;;16.53;11.77;;;15.80;98.30;;;;;;5049869;23;20491;-82
2021/09/22 20:10:19;;;;;;;16.27;11.87;;;15.80;98.30;;;;;;5050607;23;20946;-82
2021/09/22 20:12:24;;;;;;;17.03;10.70;;;15.80;98.30;;;;;;5041704;23;20520;-82
2021/09/22 20:14:27;;;;;;;15.63;12.37;;;15.80;98.30;;;;;;5040630;23;20431;-82
2021/09/22 20:16:32;;;;;;;15.33;11.70;;;15.80;98.30;;;;;;5040797;23;20463;-81
2021/09/22 20:18:35;;;;;;;22.20;12.10;;;15.70;98.30;;;;;;5041808;23;20440;-82
2021/09/22 20:20:38;;;;;;;18.87;12.43;;;15.80;98.30;;;;;;5048967;23;20436;-82
2021/09/22 20:22:41;;;;;;;19.10;12.90;;;15.80;98.30;;;;;;5049167;23;20417;-82
2021/09/22 20:24:44;;;;;;;22.13;12.20;;;15.80;98.30;;;;;;5048143;23;20495;-82
2021/09/22 20:26:48;;;;;;;19.93;12.23;;;15.70;98.30;;;;;;5049005;23;20445;-82
2021/09/22 20:28:52;;;;;;;18.67;11.27;;;15.70;98.30;;;;;;5049392;23;20433;-82
2021/09/22 20:30:55;;;;;;;15.77;11.43;;;15.70;98.30;;;;;;5042076;23;21071;-82
2021/09/22 20:32:59;;;;;;;16.87;11.87;;;15.70;98.30;;;;;;5049732;23;20447;-82
2021/09/22 20:35:03;;;;;;;19.07;12.40;;;15.70;98.30;;;;;;5049059;23;20433;-83
2021/09/22 20:37:06;;;;;;;19.10;12.90;;;15.70;98.30;;;;;;5041459;23;20461;-83
2021/09/22 20:39:09;;;;;;;16.33;12.20;;;15.70;98.30;;;;;;5040677;23;20491;-83
2021/09/22 20:41:13;;;;;;;19.83;11.90;;;15.60;98.30;;;;;;5041923;23;20801;-83
2021/09/22 20:43:16;;;;;;;15.80;11.60;;;15.60;98.30;;;;;;5042654;23;20437;-82
2021/09/22 20:45:20;;;;;;;22.10;12.70;;;15.50;98.30;;;;;;5048330;23;20553;-82
2021/09/22 20:47:23;;;;;;;18.00;12.80;;;15.50;98.30;;;;;;5048689;23;20438;-82
2021/09/22 20:49:28;;;;;;;14.73;12.17;;;15.40;98.30;;;;;;5040655;23;20437;-83
2021/09/22 20:51:31;;;;;;;18.77;12.37;;;15.40;98.30;;;;;;5049545;23;20937;-82
2021/09/22 20:53:35;;;;;;;16.53;12.30;;;15.40;98.30;;;;;;5048503;23;20433;-83
2021/09/22 20:55:38;;;;;;;17.30;12.23;;;15.40;98.30;;;;;;5040924;23;20432;-83
2021/09/22 20:57:42;;;;;;;15.33;12.80;;;15.30;98.30;;;;;;5046318;23;20421;-83
2021/09/22 20:59:45;;;;;;;16.00;12.70;;;15.30;98.30;;;;;;5047121;23;20902;-83
2021/09/22 21:01:48;;;;;;;16.03;12.53;;;15.20;98.30;;;;;;5047965;23;20475;-83
2021/09/22 21:03:52;;;;;;;17.33;12.47;;;15.20;98.30;;;;;;5038398;23;20433;-81
2021/09/22 21:05:57;;;;;;;20.43;13.87;;;15.10;98.30;;;;;;5046408;23;20459;-79
2021/09/22 21:08:00;;;;;;;18.83;14.00;;;15.10;98.30;;;;;;5046594;23;20425;-81
2021/09/22 21:10:04;;;;;;;18.50;12.87;;;15.10;98.30;;;;;;5039728;23;20433;-80
2021/09/22 21:12:07;;;;;;;21.03;14.63;;;15.10;98.30;;;;;;5048051;23;20456;-81
2021/09/22 21:14:11;;;;;;;19.23;13.87;;;15.00;98.30;;;;;;5039459;23;20528;-82
2021/09/22 21:16:14;;;;;;;22.00;14.57;;;15.00;98.30;;;;;;5049355;23;20813;-82
2021/09/22 22:51:06;;;;;;;24.90;20.07;;;14.60;98.30;;;;;;5015772;23;20946;-84
2021/09/22 23:00:54;;;;;;;25.53;21.87;;;14.60;98.30;;;;;;5027843;23;20726;-84
2021/09/22 23:03:18;;;;;;;29.27;21.20;;;14.60;98.30;;;;;;5035887;23;20480;-84
2021/09/22 23:05:49;;;;;;;30.00;21.70;;;14.60;98.30;;;;;;5100270;23;20450;-84
